Flight Track Log - Related Links

Times and Time Zones

All times are in EDT time to prevent confusion due to time zone crossing. See the TAM3752 flight status page for this flight to view local times or setup timezone preferences in your user account.

Time Position Orientation Groundspeed Altitude Reporting Facility
EDT Latitude Longitude Course Direction KTS MPH feet Rate Location/Type
Thu 07:01:17 PM -22.9370 -43.1520 135° Southeast 164 189 1,300  Level FlightAware ADS-B
Thu 07:01:45 PM -22.9520 -43.1340 132° Southeast 186 214 2,500 2,375 Climbing FlightAware ADS-B
Thu 07:02:05 PM -22.9660 -43.1190 135° Southeast 211 243 3,200 2,864 Climbing FlightAware ADS-B
Thu 07:02:29 PM -22.9790 -43.0970 123° Southeast 218 251 4,600 3,321 Climbing FlightAware ADS-B
Thu 07:03:01 PM -22.9660 -43.0680 64° Northeast 219 252 6,300 3,136 Climbing FlightAware ADS-B
Thu 07:03:13 PM -22.9560 -43.0650 15° North 210 242 6,900 3,300 Climbing FlightAware ADS-B
Thu 07:03:41 PM -22.9290 -43.0730 345° North 216 249 8,500 2,864 Climbing FlightAware ADS-B
Thu 07:03:57 PM -22.9130 -43.0770 347° North 238 274 9,000 1,833 Climbing FlightAware ADS-B
Thu 07:04:17 PM -22.8900 -43.0820 349° North 268 308 9,600 1,810 Climbing FlightAware ADS-B
Thu 07:05:00 PM -22.8320 -43.0980 346° North 329 379 10,900 2,143 Climbing FlightAware ADS-B
Thu 07:05:41 PM -22.7660 -43.1180 344° North 360 414 12,600 2,727 Climbing FlightAware ADS-B
Thu 07:06:17 PM -22.7070 -43.1350 345° North 372 428 14,400 2,763 Climbing FlightAware ADS-B
Thu 07:06:57 PM -22.6390 -43.1550 345° North 384 442 16,100 2,571 Climbing FlightAware ADS-B
Thu 07:07:41 PM -22.5630 -43.1800 343° North 398 458 18,000 2,643 Climbing FlightAware ADS-B
Thu 07:08:21 PM -22.4920 -43.2050 342° North 402 463 19,800 2,541 Climbing FlightAware ADS-B
Thu 07:09:06 PM -22.4120 -43.2310 343° North 411 473 21,600 2,071 Climbing FlightAware ADS-B
Thu 07:09:45 PM -22.3380 -43.2560 343° North 428 493 22,700 2,169 Climbing FlightAware ADS-B
Thu 07:10:29 PM -22.2560 -43.2830 343° North 423 487 24,600 2,912 Climbing FlightAware ADS-B
Thu 07:10:53 PM -22.2110 -43.2970 344° North 411 473 26,000 1,971 Climbing FlightAware ADS-B
Thu 07:11:39 PM -22.1250 -43.3260 343° North 434 499 26,900 1,484 Climbing FlightAware ADS-B
Thu 07:12:26 PM -22.0510 -43.3500 343° North 435 501 28,300 1,432 Climbing FlightAware ADS-B
Thu 07:13:07 PM -21.9750 -43.3750 343° North 449 517 29,000 545 Climbing FlightAware ADS-B
Thu 07:13:43 PM -21.8970 -43.4010 343° North 481 554 29,000  Level FlightAware ADS-B
Thu 07:14:21 PM -21.8160 -43.4270 343° North 505 581 29,000  Level FlightAware ADS-B
Thu 07:15:05 PM -21.7160 -43.4600 343° North 508 585 29,000  Level FlightAware ADS-B
Thu 07:15:38 PM -21.6390 -43.4850 343° North 508 585 29,000  Level FlightAware ADS-B
Thu 07:16:35 PM -21.5110 -43.5270 343° North 506 582 29,000  Level FlightAware ADS-B
Thu 07:17:21 PM -21.4100 -43.5600 343° North 506 582 29,000  Level FlightAware ADS-B
Thu 07:18:02 PM -21.3160 -43.5900 343° North 504 580 29,000  Level FlightAware ADS-B
Thu 07:18:43 PM -21.2230 -43.6200 343° North 504 580 29,000  Level FlightAware ADS-B
Thu 07:19:25 PM -21.1330 -43.6500 343° North 503 579 29,000  Level FlightAware ADS-B
Thu 07:20:26 PM -20.9930 -43.6950 343° North 503 579 29,000  Level FlightAware ADS-B
Thu 07:21:07 PM -20.9030 -43.7240 343° North 503 579 29,000  Level FlightAware ADS-B
Thu 07:21:48 PM -20.8100 -43.7540 343° North 503 579 29,000 -396 Level FlightAware ADS-B
Thu 07:22:38 PM -20.6790 -43.7960 343° North 465 535 28,400 -837 Descending FlightAware ADS-B
Thu 07:23:14 PM -20.6060 -43.8120 348° North 439 505 27,800 -943 Descending FlightAware ADS-B
Thu 07:23:48 PM -20.5390 -43.8030 North 420 483 27,300 -1,541 Descending FlightAware ADS-B
Thu 07:24:28 PM -20.4630 -43.7910 North 413 475 25,900 -1,929 Descending FlightAware ADS-B
Thu 07:25:12 PM -20.3810 -43.7790 North 398 458 24,600 -1,786 Descending FlightAware ADS-B
Thu 07:25:52 PM -20.3090 -43.7690 North 386 444 23,400 -1,786 Descending FlightAware ADS-B
Thu 07:26:36 PM -20.2320 -43.7570 North 376 433 22,100 -1,756 Descending FlightAware ADS-B
Thu 07:27:14 PM -20.1660 -43.7470 North 368 423 21,000 -1,571 Descending FlightAware ADS-B
Thu 07:28:00 PM -20.0890 -43.7390 North 367 422 19,900 -1,756 Descending FlightAware ADS-B
Thu 07:28:36 PM -20.0270 -43.7330 North 373 429 18,600 -1,725 Descending FlightAware ADS-B
Thu 07:29:20 PM -19.9520 -43.7250 North 357 411 17,600 -1,227 Descending FlightAware ADS-B
Thu 07:30:04 PM -19.8830 -43.7180 North 337 388 16,800 -1,256 Descending FlightAware ADS-B
Thu 07:30:46 PM -19.8190 -43.7110 North 330 380 15,800 -1,389 Descending FlightAware ADS-B
Thu 07:31:39 PM -19.7460 -43.7030 North 326 375 14,600 -1,347 Descending FlightAware ADS-B
Thu 07:32:24 PM -19.6800 -43.6970 North 309 356 13,600 -1,260 Descending FlightAware ADS-B
Thu 07:33:19 PM -19.6050 -43.7140 348° North 292 336 12,500 -1,333 Descending FlightAware ADS-B
Thu 07:34:03 PM -19.5630 -43.7570 316° Northwest 286 329 11,400 -1,500 Descending FlightAware ADS-B
Thu 07:34:43 PM -19.5270 -43.7950 315° West 275 316 10,400 -1,037 Descending FlightAware ADS-B
Thu 07:35:24 PM -19.4900 -43.8330 316° Northwest 252 290 10,000 -600 Descending FlightAware ADS-B
Thu 07:35:53 PM -19.4680 -43.8560 315° West 235 270 9,700 -612 Descending FlightAware ADS-B
Thu 07:36:13 PM -19.4510 -43.8730 317° Northwest 227 261 9,500 -857 Descending FlightAware ADS-B
Thu 07:36:28 PM -19.4420 -43.8820 317° Northwest 224 258 9,200 -1,067 Descending FlightAware ADS-B
Thu 07:36:58 PM -19.4170 -43.9080 316° Northwest 222 255 8,700 -982 Descending FlightAware ADS-B
Thu 07:37:23 PM -19.3990 -43.9270 315° West 220 253 8,300 -906 Descending FlightAware ADS-B
Thu 07:37:51 PM -19.3800 -43.9450 318° Northwest 218 251 7,900 -941 Descending FlightAware ADS-B
Thu 07:38:14 PM -19.3640 -43.9640 312° West 215 247 7,500 -1,135 Descending FlightAware ADS-B
Thu 07:38:28 PM -19.3620 -43.9790 278° West 216 249 7,200 -1,091 Descending FlightAware ADS-B
Thu 07:38:58 PM -19.3610 -44.0090 272° West 219 252 6,700 -1,091 Descending FlightAware ADS-B
Thu 07:39:23 PM -19.3600 -44.0380 272° West 222 255 6,200 -1,038 Descending FlightAware ADS-B
Thu 07:39:50 PM -19.3590 -44.0650 272° West 222 255 5,800 -800 Descending FlightAware ADS-B
Thu 07:40:23 PM -19.3690 -44.0980 252° West 221 254 5,400 -698 Descending FlightAware ADS-B
Thu 07:40:33 PM -19.3780 -44.1040 212° Southwest 219 252 5,300 -300 Descending FlightAware ADS-B
Thu 07:40:43 PM -19.3880 -44.1070 196° South 214 246 5,300 -267 Level FlightAware ADS-B
Thu 07:41:18 PM -19.4230 -44.1020 172° South 211 243 5,100 -300 Descending FlightAware ADS-B
Thu 07:41:43 PM -19.4490 -44.0990 174° South 209 241 5,000 -343 Descending FlightAware ADS-B
Thu 07:42:28 PM -19.4900 -44.0950 175° South 195 224 4,700 -321 Descending FlightAware ADS-B
Thu 07:42:39 PM -19.5000 -44.0910 159° South 187 215 4,700  Level FlightAware ADS-B
Thu 07:43:09 PM -19.5180 -44.0760 142° Southeast 153 176 4,700  Level FlightAware ADS-B
Thu 07:43:33 PM -19.5300 -44.0640 137° Southeast 141 162 4,700 -333 Level FlightAware ADS-B
Thu 07:44:03 PM -19.5440 -44.0510 139° Southeast 141 162 4,400 -700 Descending FlightAware ADS-B
Thu 07:44:33 PM -19.5600 -44.0370 140° Southeast 137 158 4,000 -655 Descending FlightAware ADS-B
Thu 07:44:58 PM -19.5720 -44.0260 139° Southeast 137 158 3,800 -655 Descending FlightAware ADS-B
Thu 07:45:28 PM -19.5860 -44.0130 139° Southeast 133 153 3,400 -800 Descending FlightAware ADS-B
Thu 07:45:58 PM -19.6000 -44.0000 139° Southeast 131 151 3,000 -764 Descending FlightAware ADS-B
Thu 07:46:23 PM -19.6110 -43.9890 137° Southeast 130 150 2,700 -655 Descending FlightAware ADS-B
Thu 07:46:53 PM -19.6250 -43.9770 141° Southeast 132 152 2,400 -600 Descending FlightAware ADS-B
Thu 07:47:19 PM -19.6330 -43.9700 141° Southeast 41 47 -5,538 Descending FlightAware ADS-B
Thu 07:47:50 PM -19.6350 -43.9670 125° Southeast 20 23  Level FlightAware ADS-B
Thu 07:48:01 PM -19.6360 -43.9660 137° Southeast 21 24  Level FlightAware ADS-B
Thu 07:48:44 PM -19.6360 -43.9630 90° East 15 17  Level FlightAware ADS-B
Thu 07:48:58 PM -19.6350 -43.9630 360° North 10 12  Level FlightAware ADS-B
Thu 07:50:03 PM -19.6340 -43.9650 298° West 7 8  Level FlightAware ADS-B
Thu 07:50:59 PM -19.6340 -43.9650 298° West 1 1  Level FlightAware ADS-B
Thu 07:53:00 PM -19.6338 -43.9689 274° West  Level Estimated
Thu 07:54:00 PM -19.6338 -43.9689 90° East  Level Estimated
Thu 07:55:00 PM -19.6338 -43.9689 90° East  Level Estimated
Thu 07:56:00 PM -19.6338 -43.9689 90° East  Level Estimated

Login

Don't have an account? Register now (free) for customized features, flight alerts, and more!